sensor_id;sensor_type;location;lat;lon;timestamp;temperature;humidity
7216;DHT22;3649;48.798;9.798;2024-03-08T00:00:00;8.00;99.90
7216;DHT22;3649;48.798;9.798;2024-03-08T00:02:39;7.90;99.90
7216;DHT22;3649;48.798;9.798;2024-03-08T00:05:07;7.90;99.90
7216;DHT22;3649;48.798;9.798;2024-03-08T00:07:37;7.90;99.90
7216;DHT22;3649;48.798;9.798;2024-03-08T00:10:05;7.90;99.90
7216;DHT22;3649;48.798;9.798;2024-03-08T00:12:32;7.80;99.90
7216;DHT22;3649;48.798;9.798;2024-03-08T00:14:59;7.70;99.90
7216;DHT22;3649;48.798;9.798;2024-03-08T00:17:26;7.80;99.90
7216;DHT22;3649;48.798;9.798;2024-03-08T00:19:54;7.80;99.90
7216;DHT22;3649;48.798;9.798;2024-03-08T00:22:21;7.70;99.90
7216;DHT22;3649;48.798;9.798;2024-03-08T00:24:48;7.80;99.90
7216;DHT22;3649;48.798;9.798;2024-03-08T00:27:18;7.80;99.90
7216;DHT22;3649;48.798;9.798;2024-03-08T00:29:48;7.80;99.90
7216;DHT22;3649;48.798;9.798;2024-03-08T00:32:15;7.70;99.90
7216;DHT22;3649;48.798;9.798;2024-03-08T00:34:41;7.70;99.90
7216;DHT22;3649;48.798;9.798;2024-03-08T00:37:09;7.70;99.90
7216;DHT22;3649;48.798;9.798;2024-03-08T00:39:36;7.60;99.90
7216;DHT22;3649;48.798;9.798;2024-03-08T00:42:04;7.60;99.90
7216;DHT22;3649;48.798;9.798;2024-03-08T00:44:31;7.60;99.90
7216;DHT22;3649;48.798;9.798;2024-03-08T00:46:58;7.50;99.90
7216;DHT22;3649;48.798;9.798;2024-03-08T00:49:26;7.50;99.90
7216;DHT22;3649;48.798;9.798;2024-03-08T00:51:53;7.40;99.90
7216;DHT22;3649;48.798;9.798;2024-03-08T00:54:20;7.40;99.90
7216;DHT22;3649;48.798;9.798;2024-03-08T00:56:47;7.30;99.90
7216;DHT22;3649;48.798;9.798;2024-03-08T00:59:13;7.30;99.90
7216;DHT22;3649;48.798;9.798;2024-03-08T01:01:41;7.20;99.90
7216;DHT22;3649;48.798;9.798;2024-03-08T01:04:08;7.20;99.90
7216;DHT22;3649;48.798;9.798;2024-03-08T01:06:35;7.20;99.90
7216;DHT22;3649;48.798;9.798;2024-03-08T01:09:02;7.20;99.90
7216;DHT22;3649;48.798;9.798;2024-03-08T01:11:29;7.10;99.90
7216;DHT22;3649;48.798;9.798;2024-03-08T01:13:56;7.10;99.90
7216;DHT22;3649;48.798;9.798;2024-03-08T01:16:23;7.10;99.90
7216;DHT22;3649;48.798;9.798;2024-03-08T01:18:49;7.30;99.90
7216;DHT22;3649;48.798;9.798;2024-03-08T01:21:17;7.30;99.90
7216;DHT22;3649;48.798;9.798;2024-03-08T01:23:44;7.20;99.90
7216;DHT22;3649;48.798;9.798;2024-03-08T01:26:11;7.20;99.90
7216;DHT22;3649;48.798;9.798;2024-03-08T01:28:38;7.60;99.90
7216;DHT22;3649;48.798;9.798;2024-03-08T01:31:05;7.20;99.90
7216;DHT22;3649;48.798;9.798;2024-03-08T01:33:32;7.20;99.90
7216;DHT22;3649;48.798;9.798;2024-03-08T01:35:59;7.40;99.90
7216;DHT22;3649;48.798;9.798;2024-03-08T01:38:26;7.40;99.90
7216;DHT22;3649;48.798;9.798;2024-03-08T01:40:53;7.40;99.90
7216;DHT22;3649;48.798;9.798;2024-03-08T01:43:27;7.40;99.90
7216;DHT22;3649;48.798;9.798;2024-03-08T01:45:58;7.40;99.90
7216;DHT22;3649;48.798;9.798;2024-03-08T01:48:29;7.40;99.90
7216;DHT22;3649;48.798;9.798;2024-03-08T01:50:57;7.40;99.90
7216;DHT22;3649;48.798;9.798;2024-03-08T01:53:25;7.50;99.90
7216;DHT22;3649;48.798;9.798;2024-03-08T01:55:56;7.80;99.90
7216;DHT22;3649;48.798;9.798;2024-03-08T01:58:26;7.30;99.90
7216;DHT22;3649;48.798;9.798;2024-03-08T02:00:56;8.20;99.90
7216;DHT22;3649;48.798;9.798;2024-03-08T02:03:23;7.20;99.90
7216;DHT22;3649;48.798;9.798;2024-03-08T02:05:50;7.20;99.90
7216;DHT22;3649;48.798;9.798;2024-03-08T02:08:19;7.20;99.90
7216;DHT22;3649;48.798;9.798;2024-03-08T02:10:46;7.40;99.90
7216;DHT22;3649;48.798;9.798;2024-03-08T02:13:13;7.40;99.90
7216;DHT22;3649;48.798;9.798;2024-03-08T02:15:56;7.30;99.90
7216;DHT22;3649;48.798;9.798;2024-03-08T02:18:27;7.40;99.90
7216;DHT22;3649;48.798;9.798;2024-03-08T02:20:59;7.30;99.90
7216;DHT22;3649;48.798;9.798;2024-03-08T02:23:27;7.40;99.90
7216;DHT22;3649;48.798;9.798;2024-03-08T02:25:55;7.40;99.90
7216;DHT22;3649;48.798;9.798;2024-03-08T02:28:23;7.50;99.90
7216;DHT22;3649;48.798;9.798;2024-03-08T02:30:52;7.50;99.90
7216;DHT22;3649;48.798;9.798;2024-03-08T02:33:24;7.40;99.90
7216;DHT22;3649;48.798;9.798;2024-03-08T02:35:51;7.90;99.90
7216;DHT22;3649;48.798;9.798;2024-03-08T02:38:20;7.60;99.90
7216;DHT22;3649;48.798;9.798;2024-03-08T02:40:48;7.60;99.90
7216;DHT22;3649;48.798;9.798;2024-03-08T02:43:16;7.60;99.90
7216;DHT22;3649;48.798;9.798;2024-03-08T02:45:44;7.60;99.90
7216;DHT22;3649;48.798;9.798;2024-03-08T02:48:13;7.80;99.90
7216;DHT22;3649;48.798;9.798;2024-03-08T02:50:40;7.70;99.90
7216;DHT22;3649;48.798;9.798;2024-03-08T02:53:09;7.70;99.90
7216;DHT22;3649;48.798;9.798;2024-03-08T02:55:38;7.70;99.90
7216;DHT22;3649;48.798;9.798;2024-03-08T02:58:05;7.70;99.90
7216;DHT22;3649;48.798;9.798;2024-03-08T03:00:38;7.60;99.90
7216;DHT22;3649;48.798;9.798;2024-03-08T03:03:07;7.70;99.90
7216;DHT22;3649;48.798;9.798;2024-03-08T03:05:34;7.70;99.90
7216;DHT22;3649;48.798;9.798;2024-03-08T03:08:02;7.60;99.90
7216;DHT22;3649;48.798;9.798;2024-03-08T03:10:36;7.60;99.90
7216;DHT22;3649;48.798;9.798;2024-03-08T03:13:03;7.70;99.90
7216;DHT22;3649;48.798;9.798;2024-03-08T03:15:31;7.60;99.90
7216;DHT22;3649;48.798;9.798;2024-03-08T03:18:00;7.60;99.90
7216;DHT22;3649;48.798;9.798;2024-03-08T03:20:28;7.60;99.90
7216;DHT22;3649;48.798;9.798;2024-03-08T03:23:00;7.70;99.90
7216;DHT22;3649;48.798;9.798;2024-03-08T03:25:29;7.60;99.90
7216;DHT22;3649;48.798;9.798;2024-03-08T03:28:01;7.80;99.90
7216;DHT22;3649;48.798;9.798;2024-03-08T03:30:28;7.60;99.90
7216;DHT22;3649;48.798;9.798;2024-03-08T03:33:00;7.60;99.90
7216;DHT22;3649;48.798;9.798;2024-03-08T03:35:28;7.60;99.90
7216;DHT22;3649;48.798;9.798;2024-03-08T03:37:56;7.60;99.90
7216;DHT22;3649;48.798;9.798;2024-03-08T03:40:49;7.60;99.90
7216;DHT22;3649;48.798;9.798;2024-03-08T03:43:19;8.80;99.90
7216;DHT22;3649;48.798;9.798;2024-03-08T03:45:52;7.60;99.90
7216;DHT22;3649;48.798;9.798;2024-03-08T03:48:23;7.70;99.90
7216;DHT22;3649;48.798;9.798;2024-03-08T03:50:50;7.60;99.90
7216;DHT22;3649;48.798;9.798;2024-03-08T03:53:17;7.60;99.90
7216;DHT22;3649;48.798;9.798;2024-03-08T03:55:44;7.60;99.90
7216;DHT22;3649;48.798;9.798;2024-03-08T03:58:14;7.60;99.90
7216;DHT22;3649;48.798;9.798;2024-03-08T04:00:42;7.60;99.90
7216;DHT22;3649;48.798;9.798;2024-03-08T04:03:11;7.60;99.90
7216;DHT22;3649;48.798;9.798;2024-03-08T04:05:39;7.50;99.90
7216;DHT22;3649;48.798;9.798;2024-03-08T04:08:06;7.50;99.90
7216;DHT22;3649;48.798;9.798;2024-03-08T04:10:32;7.50;99.90
7216;DHT22;3649;48.798;9.798;2024-03-08T04:12:59;7.50;99.90
7216;DHT22;3649;48.798;9.798;2024-03-08T04:15:26;7.40;99.90
7216;DHT22;3649;48.798;9.798;2024-03-08T04:17:53;7.40;99.90
7216;DHT22;3649;48.798;9.798;2024-03-08T04:20:21;7.30;99.90
7216;DHT22;3649;48.798;9.798;2024-03-08T04:22:48;7.40;99.90
7216;DHT22;3649;48.798;9.798;2024-03-08T04:25:16;7.70;99.90
7216;DHT22;3649;48.798;9.798;2024-03-08T04:27:43;7.50;99.90
7216;DHT22;3649;48.798;9.798;2024-03-08T04:30:11;7.50;99.90
7216;DHT22;3649;48.798;9.798;2024-03-08T04:32:39;7.50;99.90
7216;DHT22;3649;48.798;9.798;2024-03-08T04:35:06;7.50;99.90
7216;DHT22;3649;48.798;9.798;2024-03-08T04:37:33;7.60;99.90
7216;DHT22;3649;48.798;9.798;2024-03-08T04:40:00;7.50;99.90
7216;DHT22;3649;48.798;9.798;2024-03-08T04:42:28;7.70;99.90
7216;DHT22;3649;48.798;9.798;2024-03-08T04:44:56;7.60;99.90
7216;DHT22;3649;48.798;9.798;2024-03-08T04:47:24;7.60;99.90
7216;DHT22;3649;48.798;9.798;2024-03-08T04:49:51;7.60;99.90
7216;DHT22;3649;48.798;9.798;2024-03-08T04:52:18;7.60;99.90
7216;DHT22;3649;48.798;9.798;2024-03-08T04:54:45;7.50;99.90
7216;DHT22;3649;48.798;9.798;2024-03-08T04:57:12;7.50;99.90
7216;DHT22;3649;48.798;9.798;2024-03-08T04:59:39;7.60;99.90
7216;DHT22;3649;48.798;9.798;2024-03-08T05:02:06;7.50;99.90
7216;DHT22;3649;48.798;9.798;2024-03-08T05:04:34;7.60;99.90
7216;DHT22;3649;48.798;9.798;2024-03-08T05:07:02;7.50;99.90
7216;DHT22;3649;48.798;9.798;2024-03-08T05:09:29;7.60;99.90
7216;DHT22;3649;48.798;9.798;2024-03-08T05:11:58;7.60;99.90
7216;DHT22;3649;48.798;9.798;2024-03-08T05:14:26;7.60;99.90
7216;DHT22;3649;48.798;9.798;2024-03-08T05:16:53;7.70;99.90
7216;DHT22;3649;48.798;9.798;2024-03-08T05:19:20;7.60;99.90
7216;DHT22;3649;48.798;9.798;2024-03-08T05:21:49;7.60;99.90
7216;DHT22;3649;48.798;9.798;2024-03-08T05:24:17;7.60;99.90
7216;DHT22;3649;48.798;9.798;2024-03-08T05:26:45;7.60;99.90
7216;DHT22;3649;48.798;9.798;2024-03-08T05:29:13;7.50;99.90
7216;DHT22;3649;48.798;9.798;2024-03-08T05:31:51;7.40;99.90
7216;DHT22;3649;48.798;9.798;2024-03-08T05:34:21;7.50;99.90
7216;DHT22;3649;48.798;9.798;2024-03-08T05:36:49;7.50;99.90
7216;DHT22;3649;48.798;9.798;2024-03-08T05:39:18;7.60;99.90
7216;DHT22;3649;48.798;9.798;2024-03-08T05:41:47;7.70;99.90
7216;DHT22;3649;48.798;9.798;2024-03-08T05:44:14;7.70;99.90
7216;DHT22;3649;48.798;9.798;2024-03-08T05:46:44;7.70;99.90
7216;DHT22;3649;48.798;9.798;2024-03-08T05:49:10;7.70;99.90
7216;DHT22;3649;48.798;9.798;2024-03-08T05:51:39;7.60;99.90
7216;DHT22;3649;48.798;9.798;2024-03-08T05:54:08;7.60;99.90
7216;DHT22;3649;48.798;9.798;2024-03-08T05:56:41;7.50;99.90
7216;DHT22;3649;48.798;9.798;2024-03-08T05:59:12;7.50;99.90
7216;DHT22;3649;48.798;9.798;2024-03-08T06:01:39;7.50;99.90
7216;DHT22;3649;48.798;9.798;2024-03-08T06:04:09;7.50;99.90
7216;DHT22;3649;48.798;9.798;2024-03-08T06:06:38;7.50;99.90
7216;DHT22;3649;48.798;9.798;2024-03-08T06:09:06;7.60;99.90
7216;DHT22;3649;48.798;9.798;2024-03-08T06:11:38;7.60;99.90
7216;DHT22;3649;48.798;9.798;2024-03-08T06:14:06;7.60;99.90
7216;DHT22;3649;48.798;9.798;2024-03-08T06:16:33;7.60;99.90
7216;DHT22;3649;48.798;9.798;2024-03-08T06:19:00;7.90;99.90
7216;DHT22;3649;48.798;9.798;2024-03-08T06:21:29;7.50;99.90
7216;DHT22;3649;48.798;9.798;2024-03-08T06:23:56;7.60;99.90
7216;DHT22;3649;48.798;9.798;2024-03-08T06:26:25;8.20;99.90
7216;DHT22;3649;48.798;9.798;2024-03-08T06:28:56;7.60;99.90
7216;DHT22;3649;48.798;9.798;2024-03-08T06:31:23;7.70;99.90
7216;DHT22;3649;48.798;9.798;2024-03-08T06:33:50;7.50;99.90
7216;DHT22;3649;48.798;9.798;2024-03-08T06:36:17;7.60;99.90
7216;DHT22;3649;48.798;9.798;2024-03-08T06:38:51;7.60;99.90
7216;DHT22;3649;48.798;9.798;2024-03-08T06:41:18;7.60;99.90
7216;DHT22;3649;48.798;9.798;2024-03-08T06:43:46;7.60;99.90
7216;DHT22;3649;48.798;9.798;2024-03-08T06:46:15;7.60;99.90
7216;DHT22;3649;48.798;9.798;2024-03-08T06:48:42;7.60;99.90
7216;DHT22;3649;48.798;9.798;2024-03-08T06:51:09;7.70;99.90
7216;DHT22;3649;48.798;9.798;2024-03-08T06:53:38;7.60;99.90
7216;DHT22;3649;48.798;9.798;2024-03-08T06:56:05;7.60;99.90
7216;DHT22;3649;48.798;9.798;2024-03-08T06:58:34;7.60;99.90
7216;DHT22;3649;48.798;9.798;2024-03-08T07:01:01;7.60;99.90
7216;DHT22;3649;48.798;9.798;2024-03-08T07:03:31;7.60;99.90
7216;DHT22;3649;48.798;9.798;2024-03-08T07:05:59;7.60;99.90
7216;DHT22;3649;48.798;9.798;2024-03-08T07:08:28;7.70;99.90
7216;DHT22;3649;48.798;9.798;2024-03-08T07:10:55;7.80;99.90
7216;DHT22;3649;48.798;9.798;2024-03-08T07:13:22;7.80;99.90
7216;DHT22;3649;48.798;9.798;2024-03-08T07:15:49;7.80;99.90
7216;DHT22;3649;48.798;9.798;2024-03-08T07:18:16;7.90;99.90
7216;DHT22;3649;48.798;9.798;2024-03-08T07:20:43;7.90;99.90
7216;DHT22;3649;48.798;9.798;2024-03-08T07:23:12;7.90;99.90
7216;DHT22;3649;48.798;9.798;2024-03-08T07:26:00;7.80;99.90
7216;DHT22;3649;48.798;9.798;2024-03-08T07:28:28;7.80;99.90
7216;DHT22;3649;48.798;9.798;2024-03-08T07:30:58;7.70;99.90
7216;DHT22;3649;48.798;9.798;2024-03-08T07:33:52;7.70;99.90
7216;DHT22;3649;48.798;9.798;2024-03-08T07:36:22;7.60;99.90
7216;DHT22;3649;48.798;9.798;2024-03-08T07:38:49;7.60;99.90
7216;DHT22;3649;48.798;9.798;2024-03-08T07:41:16;7.70;99.90
7216;DHT22;3649;48.798;9.798;2024-03-08T07:43:43;7.70;99.90
7216;DHT22;3649;48.798;9.798;2024-03-08T07:46:10;7.80;99.90
7216;DHT22;3649;48.798;9.798;2024-03-08T07:48:37;7.70;99.90
7216;DHT22;3649;48.798;9.798;2024-03-08T07:51:04;7.60;99.90
7216;DHT22;3649;48.798;9.798;2024-03-08T07:53:32;7.60;99.90
7216;DHT22;3649;48.798;9.798;2024-03-08T07:55:59;7.60;99.90
7216;DHT22;3649;48.798;9.798;2024-03-08T07:58:26;7.70;99.90
7216;DHT22;3649;48.798;9.798;2024-03-08T08:00:53;8.70;99.90
7216;DHT22;3649;48.798;9.798;2024-03-08T08:03:21;7.90;99.90
7216;DHT22;3649;48.798;9.798;2024-03-08T08:05:48;8.00;99.90
7216;DHT22;3649;48.798;9.798;2024-03-08T08:08:16;7.80;99.90
7216;DHT22;3649;48.798;9.798;2024-03-08T08:10:42;7.80;99.90
7216;DHT22;3649;48.798;9.798;2024-03-08T08:13:09;7.80;99.90
7216;DHT22;3649;48.798;9.798;2024-03-08T08:15:38;7.90;99.90
7216;DHT22;3649;48.798;9.798;2024-03-08T08:18:05;7.90;99.90
7216;DHT22;3649;48.798;9.798;2024-03-08T08:20:33;8.00;99.90
7216;DHT22;3649;48.798;9.798;2024-03-08T08:23:00;7.90;99.90
7216;DHT22;3649;48.798;9.798;2024-03-08T08:25:27;7.90;99.90
7216;DHT22;3649;48.798;9.798;2024-03-08T08:27:54;7.90;99.90
7216;DHT22;3649;48.798;9.798;2024-03-08T08:30:21;7.90;99.90
7216;DHT22;3649;48.798;9.798;2024-03-08T08:32:48;8.00;99.90
7216;DHT22;3649;48.798;9.798;2024-03-08T08:35:16;8.00;99.90
7216;DHT22;3649;48.798;9.798;2024-03-08T08:37:45;8.00;99.90
7216;DHT22;3649;48.798;9.798;2024-03-08T08:40:12;8.00;99.90
7216;DHT22;3649;48.798;9.798;2024-03-08T08:42:42;8.00;99.90
7216;DHT22;3649;48.798;9.798;2024-03-08T08:45:09;8.10;99.90
7216;DHT22;3649;48.798;9.798;2024-03-08T08:47:46;8.10;99.90
7216;DHT22;3649;48.798;9.798;2024-03-08T08:50:14;8.20;99.90
7216;DHT22;3649;48.798;9.798;2024-03-08T08:52:41;8.20;99.90
7216;DHT22;3649;48.798;9.798;2024-03-08T08:55:10;8.20;99.90
7216;DHT22;3649;48.798;9.798;2024-03-08T08:57:42;8.20;99.90
7216;DHT22;3649;48.798;9.798;2024-03-08T09:00:09;8.20;99.90
7216;DHT22;3649;48.798;9.798;2024-03-08T09:02:42;8.30;99.90
7216;DHT22;3649;48.798;9.798;2024-03-08T09:05:09;8.30;99.90
7216;DHT22;3649;48.798;9.798;2024-03-08T09:07:36;8.40;99.90
7216;DHT22;3649;48.798;9.798;2024-03-08T09:10:04;8.40;99.90
7216;DHT22;3649;48.798;9.798;2024-03-08T09:12:34;8.40;99.90
7216;DHT22;3649;48.798;9.798;2024-03-08T09:15:01;8.40;99.90
7216;DHT22;3649;48.798;9.798;2024-03-08T09:17:28;8.50;99.90
7216;DHT22;3649;48.798;9.798;2024-03-08T09:19:56;8.50;99.90
7216;DHT22;3649;48.798;9.798;2024-03-08T09:22:26;8.50;99.90
7216;DHT22;3649;48.798;9.798;2024-03-08T09:24:53;8.50;99.90
7216;DHT22;3649;48.798;9.798;2024-03-08T09:27:20;9.50;99.90
7216;DHT22;3649;48.798;9.798;2024-03-08T09:29:47;8.60;99.90
7216;DHT22;3649;48.798;9.798;2024-03-08T09:32:14;9.10;99.90
7216;DHT22;3649;48.798;9.798;2024-03-08T09:34:41;9.10;99.90
7216;DHT22;3649;48.798;9.798;2024-03-08T09:37:09;8.70;99.90
7216;DHT22;3649;48.798;9.798;2024-03-08T09:39:37;8.80;99.90
7216;DHT22;3649;48.798;9.798;2024-03-08T09:42:05;8.90;99.90
7216;DHT22;3649;48.798;9.798;2024-03-08T09:44:33;8.90;99.90
7216;DHT22;3649;48.798;9.798;2024-03-08T09:47:02;8.90;99.90
7216;DHT22;3649;48.798;9.798;2024-03-08T09:49:30;9.00;99.90
7216;DHT22;3649;48.798;9.798;2024-03-08T09:51:57;9.00;99.90
7216;DHT22;3649;48.798;9.798;2024-03-08T09:54:25;9.00;99.90
7216;DHT22;3649;48.798;9.798;2024-03-08T09:56:53;9.10;99.90
7216;DHT22;3649;48.798;9.798;2024-03-08T09:59:20;9.10;99.90
7216;DHT22;3649;48.798;9.798;2024-03-08T10:01:50;9.90;99.90
7216;DHT22;3649;48.798;9.798;2024-03-08T10:04:18;9.10;99.90
7216;DHT22;3649;48.798;9.798;2024-03-08T10:06:47;9.30;99.90
7216;DHT22;3649;48.798;9.798;2024-03-08T10:09:14;9.10;99.90
7216;DHT22;3649;48.798;9.798;2024-03-08T10:11:41;9.20;99.90
7216;DHT22;3649;48.798;9.798;2024-03-08T10:14:09;10.00;99.90
7216;DHT22;3649;48.798;9.798;2024-03-08T10:16:40;9.30;99.90
7216;DHT22;3649;48.798;9.798;2024-03-08T10:19:07;9.50;99.90
7216;DHT22;3649;48.798;9.798;2024-03-08T10:21:36;9.30;99.90
7216;DHT22;3649;48.798;9.798;2024-03-08T10:24:13;9.30;99.90
7216;DHT22;3649;48.798;9.798;2024-03-08T10:26:40;9.20;99.90
7216;DHT22;3649;48.798;9.798;2024-03-08T10:29:11;9.20;99.90
7216;DHT22;3649;48.798;9.798;2024-03-08T10:31:45;9.20;99.90
7216;DHT22;3649;48.798;9.798;2024-03-08T10:34:12;9.20;99.90
7216;DHT22;3649;48.798;9.798;2024-03-08T10:36:40;10.10;99.90
7216;DHT22;3649;48.798;9.798;2024-03-08T10:39:23;9.10;99.90
7216;DHT22;3649;48.798;9.798;2024-03-08T10:42:02;9.30;99.90
7216;DHT22;3649;48.798;9.798;2024-03-08T10:44:40;9.40;99.90
7216;DHT22;3649;48.798;9.798;2024-03-08T10:47:27;9.40;99.90
7216;DHT22;3649;48.798;9.798;2024-03-08T10:50:19;9.90;99.90
7216;DHT22;3649;48.798;9.798;2024-03-08T10:52:52;9.40;99.90
7216;DHT22;3649;48.798;9.798;2024-03-08T10:55:19;8.90;99.90
7216;DHT22;3649;48.798;9.798;2024-03-08T10:57:49;9.50;99.90
7216;DHT22;3649;48.798;9.798;2024-03-08T11:00:18;9.60;99.90
7216;DHT22;3649;48.798;9.798;2024-03-08T11:02:56;9.60;99.90
7216;DHT22;3649;48.798;9.798;2024-03-08T11:05:40;9.60;99.90
7216;DHT22;3649;48.798;9.798;2024-03-08T11:10:52;9.70;99.90
7216;DHT22;3649;48.798;9.798;2024-03-08T11:13:37;9.70;99.90
7216;DHT22;3649;48.798;9.798;2024-03-08T11:16:08;9.90;99.90
7216;DHT22;3649;48.798;9.798;2024-03-08T11:18:37;9.80;99.90
7216;DHT22;3649;48.798;9.798;2024-03-08T11:21:06;9.80;99.90
7216;DHT22;3649;48.798;9.798;2024-03-08T11:23:38;9.80;99.90
7216;DHT22;3649;48.798;9.798;2024-03-08T11:26:19;9.90;99.90
7216;DHT22;3649;48.798;9.798;2024-03-08T11:28:46;10.40;99.90
7216;DHT22;3649;48.798;9.798;2024-03-08T11:31:25;9.80;99.90
7216;DHT22;3649;48.798;9.798;2024-03-08T11:33:53;9.90;99.90
7216;DHT22;3649;48.798;9.798;2024-03-08T11:36:24;10.00;99.90
7216;DHT22;3649;48.798;9.798;2024-03-08T11:38:52;9.90;99.90
7216;DHT22;3649;48.798;9.798;2024-03-08T11:41:20;10.00;99.90
7216;DHT22;3649;48.798;9.798;2024-03-08T11:43:48;10.10;99.90
7216;DHT22;3649;48.798;9.798;2024-03-08T11:46:17;10.10;99.90
7216;DHT22;3649;48.798;9.798;2024-03-08T11:48:47;10.20;99.90
7216;DHT22;3649;48.798;9.798;2024-03-08T11:51:15;10.20;99.90
7216;DHT22;3649;48.798;9.798;2024-03-08T11:53:42;11.40;99.90
7216;DHT22;3649;48.798;9.798;2024-03-08T11:56:14;10.40;99.90
7216;DHT22;3649;48.798;9.798;2024-03-08T11:58:42;10.40;99.90
7216;DHT22;3649;48.798;9.798;2024-03-08T12:01:10;10.40;99.90
7216;DHT22;3649;48.798;9.798;2024-03-08T12:03:40;10.40;99.90
7216;DHT22;3649;48.798;9.798;2024-03-08T12:06:12;10.40;99.90
7216;DHT22;3649;48.798;9.798;2024-03-08T12:08:42;11.60;99.90
7216;DHT22;3649;48.798;9.798;2024-03-08T12:11:09;10.50;99.80
7216;DHT22;3649;48.798;9.798;2024-03-08T12:13:37;10.60;99.70
7216;DHT22;3649;48.798;9.798;2024-03-08T12:16:04;11.60;99.90
7216;DHT22;3649;48.798;9.798;2024-03-08T12:18:37;10.70;99.90
7216;DHT22;3649;48.798;9.798;2024-03-08T12:21:08;10.70;99.50
7216;DHT22;3649;48.798;9.798;2024-03-08T12:23:38;10.70;99.70
7216;DHT22;3649;48.798;9.798;2024-03-08T12:26:15;10.70;99.80
7216;DHT22;3649;48.798;9.798;2024-03-08T12:28:44;11.80;99.90
7216;DHT22;3649;48.798;9.798;2024-03-08T12:31:16;10.70;99.60
7216;DHT22;3649;48.798;9.798;2024-03-08T12:33:53;10.70;99.80
7216;DHT22;3649;48.798;9.798;2024-03-08T12:36:23;10.80;99.90
7216;DHT22;3649;48.798;9.798;2024-03-08T12:38:50;10.80;99.90
7216;DHT22;3649;48.798;9.798;2024-03-08T12:41:19;10.90;99.90
7216;DHT22;3649;48.798;9.798;2024-03-08T12:43:47;11.00;99.90
7216;DHT22;3649;48.798;9.798;2024-03-08T12:46:18;11.00;99.80
7216;DHT22;3649;48.798;9.798;2024-03-08T12:48:53;11.20;99.90
7216;DHT22;3649;48.798;9.798;2024-03-08T12:51:21;11.00;99.80
7216;DHT22;3649;48.798;9.798;2024-03-08T12:53:48;12.10;99.90
7216;DHT22;3649;48.798;9.798;2024-03-08T12:56:30;11.30;99.80
7216;DHT22;3649;48.798;9.798;2024-03-08T12:59:00;11.40;99.70
7216;DHT22;3649;48.798;9.798;2024-03-08T13:01:27;11.40;99.50
7216;DHT22;3649;48.798;9.798;2024-03-08T13:03:54;11.40;99.40
7216;DHT22;3649;48.798;9.798;2024-03-08T13:06:22;11.60;99.90
7216;DHT22;3649;48.798;9.798;2024-03-08T13:08:51;11.50;99.60
7216;DHT22;3649;48.798;9.798;2024-03-08T13:11:19;11.50;99.60
7216;DHT22;3649;48.798;9.798;2024-03-08T13:13:47;11.60;99.50
7216;DHT22;3649;48.798;9.798;2024-03-08T13:16:14;11.60;99.50
7216;DHT22;3649;48.798;9.798;2024-03-08T13:18:43;12.30;99.70
7216;DHT22;3649;48.798;9.798;2024-03-08T13:21:10;11.80;99.40
7216;DHT22;3649;48.798;9.798;2024-03-08T13:23:41;11.70;99.30
7216;DHT22;3649;48.798;9.798;2024-03-08T13:26:13;11.70;99.40
7216;DHT22;3649;48.798;9.798;2024-03-08T13:28:48;11.80;99.50
7216;DHT22;3649;48.798;9.798;2024-03-08T13:31:20;11.90;99.20
7216;DHT22;3649;48.798;9.798;2024-03-08T13:33:47;12.80;99.60
7216;DHT22;3649;48.798;9.798;2024-03-08T13:36:14;12.00;99.10
7216;DHT22;3649;48.798;9.798;2024-03-08T13:38:43;12.00;99.20
7216;DHT22;3649;48.798;9.798;2024-03-08T13:41:11;12.00;99.00
7216;DHT22;3649;48.798;9.798;2024-03-08T13:43:41;12.00;98.60
7216;DHT22;3649;48.798;9.798;2024-03-08T13:46:09;12.00;98.60
7216;DHT22;3649;48.798;9.798;2024-03-08T13:48:37;12.10;98.70
7216;DHT22;3649;48.798;9.798;2024-03-08T13:51:05;12.10;98.70
7216;DHT22;3649;48.798;9.798;2024-03-08T13:53:42;12.10;98.40
7216;DHT22;3649;48.798;9.798;2024-03-08T13:56:09;12.20;98.60
7216;DHT22;3649;48.798;9.798;2024-03-08T13:58:39;12.10;98.60
7216;DHT22;3649;48.798;9.798;2024-03-08T14:01:07;12.60;98.90
7216;DHT22;3649;48.798;9.798;2024-03-08T14:03:39;12.10;98.80
7216;DHT22;3649;48.798;9.798;2024-03-08T14:06:10;12.20;99.10
7216;DHT22;3649;48.798;9.798;2024-03-08T14:08:51;12.20;98.90
7216;DHT22;3649;48.798;9.798;2024-03-08T14:11:18;12.20;98.80
7216;DHT22;3649;48.798;9.798;2024-03-08T14:13:46;12.40;98.80
7216;DHT22;3649;48.798;9.798;2024-03-08T14:16:14;12.30;98.80
7216;DHT22;3649;48.798;9.798;2024-03-08T14:18:42;12.40;98.70
7216;DHT22;3649;48.798;9.798;2024-03-08T14:21:09;12.30;98.60
7216;DHT22;3649;48.798;9.798;2024-03-08T14:23:37;12.30;98.30
7216;DHT22;3649;48.798;9.798;2024-03-08T14:26:04;12.40;98.30
7216;DHT22;3649;48.798;9.798;2024-03-08T14:28:33;12.30;98.30
7216;DHT22;3649;48.798;9.798;2024-03-08T14:31:01;12.30;98.30
7216;DHT22;3649;48.798;9.798;2024-03-08T14:33:33;12.40;98.60
7216;DHT22;3649;48.798;9.798;2024-03-08T14:36:00;12.50;98.70
7216;DHT22;3649;48.798;9.798;2024-03-08T14:38:28;12.60;98.40
7216;DHT22;3649;48.798;9.798;2024-03-08T14:40:55;12.30;98.30
7216;DHT22;3649;48.798;9.798;2024-03-08T14:43:22;12.50;98.70
7216;DHT22;3649;48.798;9.798;2024-03-08T14:45:50;13.50;98.80
7216;DHT22;3649;48.798;9.798;2024-03-08T14:48:17;13.00;98.90
7216;DHT22;3649;48.798;9.798;2024-03-08T14:50:45;14.20;98.10
7216;DHT22;3649;48.798;9.798;2024-03-08T14:53:14;16.20;96.40
7216;DHT22;3649;48.798;9.798;2024-03-08T14:55:43;18.30;95.50
7216;DHT22;3649;48.798;9.798;2024-03-08T14:58:13;20.20;93.80
7216;DHT22;3649;48.798;9.798;2024-03-08T15:00:41;21.70;92.60
7216;DHT22;3649;48.798;9.798;2024-03-08T15:03:08;21.00;90.90
7216;DHT22;3649;48.798;9.798;2024-03-08T15:05:39;21.90;91.20
7216;DHT22;3649;48.798;9.798;2024-03-08T15:08:09;20.30;91.60
7216;DHT22;3649;48.798;9.798;2024-03-08T15:10:38;18.80;92.60
7216;DHT22;3649;48.798;9.798;2024-03-08T15:13:08;17.90;93.30
7216;DHT22;3649;48.798;9.798;2024-03-08T15:15:42;16.40;94.00
7216;DHT22;3649;48.798;9.798;2024-03-08T15:18:12;15.60;94.50
7216;DHT22;3649;48.798;9.798;2024-03-08T15:20:39;15.10;95.00
7216;DHT22;3649;48.798;9.798;2024-03-08T15:23:08;14.90;95.40
7216;DHT22;3649;48.798;9.798;2024-03-08T15:25:36;14.40;96.20
7216;DHT22;3649;48.798;9.798;2024-03-08T15:28:05;14.20;97.00
7216;DHT22;3649;48.798;9.798;2024-03-08T15:30:40;13.90;97.20
7216;DHT22;3649;48.798;9.798;2024-03-08T15:33:09;13.60;96.90
7216;DHT22;3649;48.798;9.798;2024-03-08T15:35:37;13.60;97.50
7216;DHT22;3649;48.798;9.798;2024-03-08T15:38:04;13.40;97.80
7216;DHT22;3649;48.798;9.798;2024-03-08T15:40:32;13.40;97.80
7216;DHT22;3649;48.798;9.798;2024-03-08T15:43:02;13.40;97.80
7216;DHT22;3649;48.798;9.798;2024-03-08T15:45:30;13.30;97.80
7216;DHT22;3649;48.798;9.798;2024-03-08T15:47:58;13.40;97.70
7216;DHT22;3649;48.798;9.798;2024-03-08T15:50:24;13.30;97.60
7216;DHT22;3649;48.798;9.798;2024-03-08T15:52:51;13.30;97.40
7216;DHT22;3649;48.798;9.798;2024-03-08T15:55:21;13.10;97.50
7216;DHT22;3649;48.798;9.798;2024-03-08T15:57:52;13.10;97.80
7216;DHT22;3649;48.798;9.798;2024-03-08T16:00:21;13.00;97.70
7216;DHT22;3649;48.798;9.798;2024-03-08T16:03:04;13.00;97.90
7216;DHT22;3649;48.798;9.798;2024-03-08T16:05:41;13.00;98.20
7216;DHT22;3649;48.798;9.798;2024-03-08T16:08:08;12.90;98.10
7216;DHT22;3649;48.798;9.798;2024-03-08T16:10:46;13.00;98.20
7216;DHT22;3649;48.798;9.798;2024-03-08T16:13:22;12.90;98.20
7216;DHT22;3649;48.798;9.798;2024-03-08T16:15:50;12.90;98.20
7216;DHT22;3649;48.798;9.798;2024-03-08T16:18:20;13.90;98.40
7216;DHT22;3649;48.798;9.798;2024-03-08T16:20:52;13.00;98.30
7216;DHT22;3649;48.798;9.798;2024-03-08T16:23:20;12.80;98.00
7216;DHT22;3649;48.798;9.798;2024-03-08T16:25:47;12.80;98.10